sensor_id;sensor_type;location;lat;lon;timestamp;temperature;humidity
6724;DHT22;3399;52.530;13.304;2023-04-06T00:01:25;4.60;99.90
6724;DHT22;3399;52.530;13.304;2023-04-06T00:03:51;4.60;99.90
6724;DHT22;3399;52.530;13.304;2023-04-06T00:06:16;4.50;99.90
6724;DHT22;3399;52.530;13.304;2023-04-06T00:08:42;4.60;99.90
6724;DHT22;3399;52.530;13.304;2023-04-06T00:11:08;4.50;99.90
6724;DHT22;3399;52.530;13.304;2023-04-06T00:13:34;4.50;99.90
6724;DHT22;3399;52.530;13.304;2023-04-06T00:15:59;4.40;99.90
6724;DHT22;3399;52.530;13.304;2023-04-06T00:18:25;4.40;99.90
6724;DHT22;3399;52.530;13.304;2023-04-06T00:20:50;4.30;99.90
6724;DHT22;3399;52.530;13.304;2023-04-06T00:23:16;4.30;99.90
6724;DHT22;3399;52.530;13.304;2023-04-06T00:25:42;4.20;99.90
6724;DHT22;3399;52.530;13.304;2023-04-06T00:28:07;4.20;99.90
6724;DHT22;3399;52.530;13.304;2023-04-06T00:30:33;4.10;99.90
6724;DHT22;3399;52.530;13.304;2023-04-06T00:32:58;4.10;99.90
6724;DHT22;3399;52.530;13.304;2023-04-06T00:35:24;4.00;99.90
6724;DHT22;3399;52.530;13.304;2023-04-06T00:37:49;4.00;99.90
6724;DHT22;3399;52.530;13.304;2023-04-06T00:40:15;4.00;99.90
6724;DHT22;3399;52.530;13.304;2023-04-06T00:42:41;4.00;99.90
6724;DHT22;3399;52.530;13.304;2023-04-06T00:45:07;3.90;99.90
6724;DHT22;3399;52.530;13.304;2023-04-06T00:47:33;3.80;99.90
6724;DHT22;3399;52.530;13.304;2023-04-06T00:49:59;3.80;99.90
6724;DHT22;3399;52.530;13.304;2023-04-06T00:52:25;3.80;99.90
6724;DHT22;3399;52.530;13.304;2023-04-06T00:54:50;3.80;99.90
6724;DHT22;3399;52.530;13.304;2023-04-06T00:57:16;3.80;99.90
6724;DHT22;3399;52.530;13.304;2023-04-06T00:59:42;3.70;99.90
6724;DHT22;3399;52.530;13.304;2023-04-06T01:02:08;3.70;99.90
6724;DHT22;3399;52.530;13.304;2023-04-06T01:04:34;3.60;99.90
6724;DHT22;3399;52.530;13.304;2023-04-06T01:07:00;3.60;99.90
6724;DHT22;3399;52.530;13.304;2023-04-06T01:09:28;3.50;99.90
6724;DHT22;3399;52.530;13.304;2023-04-06T01:11:54;3.50;99.90
6724;DHT22;3399;52.530;13.304;2023-04-06T01:14:21;3.50;99.90
6724;DHT22;3399;52.530;13.304;2023-04-06T01:16:47;3.50;99.90
6724;DHT22;3399;52.530;13.304;2023-04-06T01:19:13;3.50;99.90
6724;DHT22;3399;52.530;13.304;2023-04-06T01:21:40;3.40;99.90
6724;DHT22;3399;52.530;13.304;2023-04-06T01:31:55;3.40;99.90
6724;DHT22;3399;52.530;13.304;2023-04-06T01:34:20;3.40;99.90
6724;DHT22;3399;52.530;13.304;2023-04-06T01:36:46;3.30;99.90
6724;DHT22;3399;52.530;13.304;2023-04-06T01:39:11;3.30;99.90
6724;DHT22;3399;52.530;13.304;2023-04-06T01:41:37;3.20;99.90
6724;DHT22;3399;52.530;13.304;2023-04-06T01:44:02;3.20;99.90
6724;DHT22;3399;52.530;13.304;2023-04-06T01:46:28;3.20;99.90
6724;DHT22;3399;52.530;13.304;2023-04-06T01:48:53;3.20;99.90
6724;DHT22;3399;52.530;13.304;2023-04-06T01:51:19;3.10;99.90
6724;DHT22;3399;52.530;13.304;2023-04-06T01:53:44;3.10;99.90
6724;DHT22;3399;52.530;13.304;2023-04-06T01:56:10;3.10;99.90
6724;DHT22;3399;52.530;13.304;2023-04-06T01:58:35;3.10;99.90
6724;DHT22;3399;52.530;13.304;2023-04-06T02:01:01;3.00;99.90
6724;DHT22;3399;52.530;13.304;2023-04-06T02:03:26;3.00;99.90
6724;DHT22;3399;52.530;13.304;2023-04-06T02:05:52;3.00;99.90
6724;DHT22;3399;52.530;13.304;2023-04-06T02:08:17;2.90;99.90
6724;DHT22;3399;52.530;13.304;2023-04-06T02:10:43;2.90;99.90
6724;DHT22;3399;52.530;13.304;2023-04-06T02:13:08;2.90;99.90
6724;DHT22;3399;52.530;13.304;2023-04-06T02:15:34;2.90;99.90
6724;DHT22;3399;52.530;13.304;2023-04-06T02:17:59;2.80;99.90
6724;DHT22;3399;52.530;13.304;2023-04-06T02:20:25;2.80;99.90
6724;DHT22;3399;52.530;13.304;2023-04-06T02:22:51;2.80;99.90
6724;DHT22;3399;52.530;13.304;2023-04-06T02:25:16;2.90;99.90
6724;DHT22;3399;52.530;13.304;2023-04-06T02:27:42;2.80;99.90
6724;DHT22;3399;52.530;13.304;2023-04-06T02:30:08;2.80;99.90
6724;DHT22;3399;52.530;13.304;2023-04-06T02:32:33;2.80;99.90
6724;DHT22;3399;52.530;13.304;2023-04-06T02:34:59;2.70;99.90
6724;DHT22;3399;52.530;13.304;2023-04-06T02:37:25;2.70;99.90
6724;DHT22;3399;52.530;13.304;2023-04-06T02:39:51;2.70;99.90
6724;DHT22;3399;52.530;13.304;2023-04-06T02:42:16;2.60;99.90
6724;DHT22;3399;52.530;13.304;2023-04-06T02:44:42;2.60;99.90
6724;DHT22;3399;52.530;13.304;2023-04-06T02:47:08;2.60;99.90
6724;DHT22;3399;52.530;13.304;2023-04-06T02:49:34;2.60;99.90
6724;DHT22;3399;52.530;13.304;2023-04-06T02:52:00;2.50;99.90
6724;DHT22;3399;52.530;13.304;2023-04-06T02:54:25;2.50;99.90
6724;DHT22;3399;52.530;13.304;2023-04-06T02:56:51;2.50;99.90
6724;DHT22;3399;52.530;13.304;2023-04-06T02:59:16;2.50;99.90
6724;DHT22;3399;52.530;13.304;2023-04-06T03:01:42;2.50;99.90
6724;DHT22;3399;52.530;13.304;2023-04-06T03:04:07;2.50;99.90
6724;DHT22;3399;52.530;13.304;2023-04-06T03:06:33;2.50;99.90
6724;DHT22;3399;52.530;13.304;2023-04-06T03:08:58;2.50;99.90
6724;DHT22;3399;52.530;13.304;2023-04-06T03:11:23;2.50;99.90
6724;DHT22;3399;52.530;13.304;2023-04-06T03:13:49;2.60;99.90
6724;DHT22;3399;52.530;13.304;2023-04-06T03:16:14;2.50;99.90
6724;DHT22;3399;52.530;13.304;2023-04-06T03:18:40;2.50;99.90
6724;DHT22;3399;52.530;13.304;2023-04-06T03:21:06;2.50;99.90
6724;DHT22;3399;52.530;13.304;2023-04-06T03:23:31;2.50;99.90
6724;DHT22;3399;52.530;13.304;2023-04-06T03:25:57;2.50;99.90
6724;DHT22;3399;52.530;13.304;2023-04-06T03:28:22;2.50;99.90
6724;DHT22;3399;52.530;13.304;2023-04-06T03:30:48;2.50;99.90
6724;DHT22;3399;52.530;13.304;2023-04-06T03:33:14;2.50;99.90
6724;DHT22;3399;52.530;13.304;2023-04-06T03:35:39;2.50;99.90
6724;DHT22;3399;52.530;13.304;2023-04-06T03:38:05;2.40;99.90
6724;DHT22;3399;52.530;13.304;2023-04-06T03:40:30;2.40;99.90
6724;DHT22;3399;52.530;13.304;2023-04-06T03:42:56;2.40;99.90
6724;DHT22;3399;52.530;13.304;2023-04-06T03:45:22;2.30;99.90
6724;DHT22;3399;52.530;13.304;2023-04-06T03:47:47;2.30;99.90
6724;DHT22;3399;52.530;13.304;2023-04-06T03:50:13;2.40;99.90
6724;DHT22;3399;52.530;13.304;2023-04-06T03:52:38;2.30;99.90
6724;DHT22;3399;52.530;13.304;2023-04-06T03:55:04;2.40;99.90
6724;DHT22;3399;52.530;13.304;2023-04-06T03:57:30;2.40;99.90
6724;DHT22;3399;52.530;13.304;2023-04-06T03:59:56;2.40;99.90
6724;DHT22;3399;52.530;13.304;2023-04-06T04:02:21;2.30;99.90
6724;DHT22;3399;52.530;13.304;2023-04-06T04:04:47;2.30;99.90
6724;DHT22;3399;52.530;13.304;2023-04-06T04:07:12;2.30;99.90
6724;DHT22;3399;52.530;13.304;2023-04-06T04:09:37;2.30;99.90
6724;DHT22;3399;52.530;13.304;2023-04-06T04:12:03;2.30;99.90
6724;DHT22;3399;52.530;13.304;2023-04-06T04:14:29;2.30;99.90
6724;DHT22;3399;52.530;13.304;2023-04-06T04:16:54;2.30;99.90
6724;DHT22;3399;52.530;13.304;2023-04-06T04:19:20;2.30;99.90
6724;DHT22;3399;52.530;13.304;2023-04-06T04:21:46;2.30;99.90
6724;DHT22;3399;52.530;13.304;2023-04-06T04:24:12;2.20;99.90
6724;DHT22;3399;52.530;13.304;2023-04-06T04:26:38;2.20;99.90
6724;DHT22;3399;52.530;13.304;2023-04-06T04:29:04;2.20;99.90
6724;DHT22;3399;52.530;13.304;2023-04-06T04:31:29;2.20;99.90
6724;DHT22;3399;52.530;13.304;2023-04-06T04:33:55;2.20;99.90
6724;DHT22;3399;52.530;13.304;2023-04-06T04:36:21;2.10;99.90
6724;DHT22;3399;52.530;13.304;2023-04-06T04:38:46;2.20;99.90
6724;DHT22;3399;52.530;13.304;2023-04-06T04:41:11;2.20;99.90
6724;DHT22;3399;52.530;13.304;2023-04-06T04:43:37;2.20;99.90
6724;DHT22;3399;52.530;13.304;2023-04-06T04:46:04;2.20;99.90
6724;DHT22;3399;52.530;13.304;2023-04-06T04:48:30;2.20;99.90
6724;DHT22;3399;52.530;13.304;2023-04-06T04:50:55;2.20;99.90
6724;DHT22;3399;52.530;13.304;2023-04-06T04:53:21;2.20;99.90
6724;DHT22;3399;52.530;13.304;2023-04-06T04:55:46;2.20;99.90
6724;DHT22;3399;52.530;13.304;2023-04-06T04:58:12;2.20;99.90
6724;DHT22;3399;52.530;13.304;2023-04-06T05:00:42;2.20;99.90
6724;DHT22;3399;52.530;13.304;2023-04-06T05:03:08;2.30;99.90
6724;DHT22;3399;52.530;13.304;2023-04-06T05:05:33;2.30;99.90
6724;DHT22;3399;52.530;13.304;2023-04-06T05:07:59;2.30;99.90
6724;DHT22;3399;52.530;13.304;2023-04-06T05:10:24;2.40;99.90
6724;DHT22;3399;52.530;13.304;2023-04-06T05:12:50;2.40;99.90
6724;DHT22;3399;52.530;13.304;2023-04-06T05:15:15;2.40;99.90
6724;DHT22;3399;52.530;13.304;2023-04-06T05:17:41;2.40;99.90
6724;DHT22;3399;52.530;13.304;2023-04-06T05:20:07;2.50;99.90
6724;DHT22;3399;52.530;13.304;2023-04-06T05:22:32;2.50;99.90
6724;DHT22;3399;52.530;13.304;2023-04-06T05:24:58;2.50;99.90
6724;DHT22;3399;52.530;13.304;2023-04-06T05:27:23;2.50;99.90
6724;DHT22;3399;52.530;13.304;2023-04-06T05:29:49;2.60;99.90
6724;DHT22;3399;52.530;13.304;2023-04-06T05:32:14;2.60;99.90
6724;DHT22;3399;52.530;13.304;2023-04-06T05:34:40;2.60;99.90
6724;DHT22;3399;52.530;13.304;2023-04-06T05:37:05;2.70;99.90
6724;DHT22;3399;52.530;13.304;2023-04-06T05:39:31;2.70;99.90
6724;DHT22;3399;52.530;13.304;2023-04-06T05:41:57;2.80;99.90
6724;DHT22;3399;52.530;13.304;2023-04-06T05:44:22;2.80;99.90
6724;DHT22;3399;52.530;13.304;2023-04-06T05:46:47;2.90;99.90
6724;DHT22;3399;52.530;13.304;2023-04-06T05:49:13;3.00;99.90
6724;DHT22;3399;52.530;13.304;2023-04-06T05:51:38;3.00;99.90
6724;DHT22;3399;52.530;13.304;2023-04-06T05:54:04;3.10;99.90
6724;DHT22;3399;52.530;13.304;2023-04-06T05:56:30;3.20;99.90
6724;DHT22;3399;52.530;13.304;2023-04-06T05:58:57;3.20;99.90
6724;DHT22;3399;52.530;13.304;2023-04-06T06:01:22;3.30;99.90
6724;DHT22;3399;52.530;13.304;2023-04-06T06:03:47;3.40;99.90
6724;DHT22;3399;52.530;13.304;2023-04-06T06:06:13;3.50;99.90
6724;DHT22;3399;52.530;13.304;2023-04-06T06:08:38;3.60;99.90
6724;DHT22;3399;52.530;13.304;2023-04-06T06:11:04;3.60;99.90
6724;DHT22;3399;52.530;13.304;2023-04-06T06:13:30;3.70;99.90
6724;DHT22;3399;52.530;13.304;2023-04-06T06:15:55;3.80;99.90
6724;DHT22;3399;52.530;13.304;2023-04-06T06:18:21;3.90;99.90
6724;DHT22;3399;52.530;13.304;2023-04-06T06:20:46;4.00;99.90
6724;DHT22;3399;52.530;13.304;2023-04-06T06:23:12;4.10;99.90
6724;DHT22;3399;52.530;13.304;2023-04-06T06:25:37;4.20;99.90
6724;DHT22;3399;52.530;13.304;2023-04-06T06:28:03;4.30;99.90
6724;DHT22;3399;52.530;13.304;2023-04-06T06:30:28;4.40;99.90
6724;DHT22;3399;52.530;13.304;2023-04-06T06:32:54;4.50;99.90
6724;DHT22;3399;52.530;13.304;2023-04-06T06:35:19;4.60;99.90
6724;DHT22;3399;52.530;13.304;2023-04-06T06:37:45;4.60;99.90
6724;DHT22;3399;52.530;13.304;2023-04-06T06:40:11;4.70;99.90
6724;DHT22;3399;52.530;13.304;2023-04-06T06:42:38;4.80;99.90
6724;DHT22;3399;52.530;13.304;2023-04-06T06:45:04;4.90;99.90
6724;DHT22;3399;52.530;13.304;2023-04-06T06:47:30;5.00;99.90
6724;DHT22;3399;52.530;13.304;2023-04-06T06:49:56;5.10;99.90
6724;DHT22;3399;52.530;13.304;2023-04-06T06:52:21;5.20;99.90
6724;DHT22;3399;52.530;13.304;2023-04-06T06:54:48;5.30;99.90
6724;DHT22;3399;52.530;13.304;2023-04-06T06:57:13;5.40;99.90
6724;DHT22;3399;52.530;13.304;2023-04-06T06:59:39;5.50;99.90
6724;DHT22;3399;52.530;13.304;2023-04-06T07:02:04;5.70;99.90
6724;DHT22;3399;52.530;13.304;2023-04-06T07:04:30;5.80;99.90
6724;DHT22;3399;52.530;13.304;2023-04-06T07:06:56;5.80;99.90
6724;DHT22;3399;52.530;13.304;2023-04-06T07:09:21;5.90;99.70
6724;DHT22;3399;52.530;13.304;2023-04-06T07:11:47;6.00;99.70
6724;DHT22;3399;52.530;13.304;2023-04-06T07:14:15;6.10;99.80
6724;DHT22;3399;52.530;13.304;2023-04-06T07:16:41;6.20;99.60
6724;DHT22;3399;52.530;13.304;2023-04-06T07:19:06;6.20;99.30
6724;DHT22;3399;52.530;13.304;2023-04-06T07:21:32;6.30;99.00
6724;DHT22;3399;52.530;13.304;2023-04-06T07:23:57;6.40;98.70
6724;DHT22;3399;52.530;13.304;2023-04-06T07:26:23;6.40;98.30
6724;DHT22;3399;52.530;13.304;2023-04-06T07:28:48;6.50;98.10
6724;DHT22;3399;52.530;13.304;2023-04-06T07:31:14;6.60;98.00
6724;DHT22;3399;52.530;13.304;2023-04-06T07:33:39;6.70;97.20
6724;DHT22;3399;52.530;13.304;2023-04-06T07:36:05;6.70;96.70
6724;DHT22;3399;52.530;13.304;2023-04-06T07:38:30;6.70;97.00
6724;DHT22;3399;52.530;13.304;2023-04-06T07:40:56;6.80;96.70
6724;DHT22;3399;52.530;13.304;2023-04-06T07:43:22;6.90;96.00
6724;DHT22;3399;52.530;13.304;2023-04-06T07:45:47;6.90;95.60
6724;DHT22;3399;52.530;13.304;2023-04-06T07:48:13;7.00;95.40
6724;DHT22;3399;52.530;13.304;2023-04-06T07:50:38;7.10;95.10
6724;DHT22;3399;52.530;13.304;2023-04-06T07:53:04;7.10;94.80
6724;DHT22;3399;52.530;13.304;2023-04-06T07:55:30;7.20;94.00
6724;DHT22;3399;52.530;13.304;2023-04-06T07:57:55;7.30;94.30
6724;DHT22;3399;52.530;13.304;2023-04-06T08:00:21;7.30;94.30
6724;DHT22;3399;52.530;13.304;2023-04-06T08:02:47;7.30;93.60
6724;DHT22;3399;52.530;13.304;2023-04-06T08:05:12;7.30;93.00
6724;DHT22;3399;52.530;13.304;2023-04-06T08:07:38;7.40;93.00
6724;DHT22;3399;52.530;13.304;2023-04-06T08:10:04;7.40;93.10
6724;DHT22;3399;52.530;13.304;2023-04-06T08:12:30;7.50;92.70
6724;DHT22;3399;52.530;13.304;2023-04-06T08:14:55;7.60;92.70
6724;DHT22;3399;52.530;13.304;2023-04-06T08:17:22;7.60;92.50
6724;DHT22;3399;52.530;13.304;2023-04-06T08:19:47;7.70;91.30
6724;DHT22;3399;52.530;13.304;2023-04-06T08:22:13;7.80;91.70
6724;DHT22;3399;52.530;13.304;2023-04-06T08:24:38;7.90;91.30
6724;DHT22;3399;52.530;13.304;2023-04-06T08:27:04;7.90;90.40
6724;DHT22;3399;52.530;13.304;2023-04-06T08:29:29;8.00;89.10
6724;DHT22;3399;52.530;13.304;2023-04-06T08:31:55;8.10;89.00
6724;DHT22;3399;52.530;13.304;2023-04-06T08:34:21;8.10;88.40
6724;DHT22;3399;52.530;13.304;2023-04-06T08:36:48;8.20;85.90
6724;DHT22;3399;52.530;13.304;2023-04-06T08:39:13;8.20;86.70
6724;DHT22;3399;52.530;13.304;2023-04-06T08:41:41;8.30;85.50
6724;DHT22;3399;52.530;13.304;2023-04-06T08:44:08;8.30;85.20
6724;DHT22;3399;52.530;13.304;2023-04-06T08:46:33;8.40;84.00
6724;DHT22;3399;52.530;13.304;2023-04-06T08:49:01;8.40;86.00
6724;DHT22;3399;52.530;13.304;2023-04-06T08:51:28;8.50;83.30
6724;DHT22;3399;52.530;13.304;2023-04-06T08:53:56;8.50;82.80
6724;DHT22;3399;52.530;13.304;2023-04-06T08:56:23;8.40;83.40
6724;DHT22;3399;52.530;13.304;2023-04-06T08:58:48;8.50;82.00
6724;DHT22;3399;52.530;13.304;2023-04-06T09:01:16;8.60;81.10
6724;DHT22;3399;52.530;13.304;2023-04-06T09:03:43;8.70;80.50
6724;DHT22;3399;52.530;13.304;2023-04-06T09:06:08;8.80;80.20
6724;DHT22;3399;52.530;13.304;2023-04-06T09:08:35;8.90;79.90
6724;DHT22;3399;52.530;13.304;2023-04-06T09:11:02;9.10;79.10
6724;DHT22;3399;52.530;13.304;2023-04-06T09:13:28;9.00;76.90
6724;DHT22;3399;52.530;13.304;2023-04-06T09:16:01;9.20;76.80
6724;DHT22;3399;52.530;13.304;2023-04-06T09:18:28;9.30;75.00
6724;DHT22;3399;52.530;13.304;2023-04-06T09:21:00;9.40;72.40
6724;DHT22;3399;52.530;13.304;2023-04-06T09:23:26;9.40;74.00
6724;DHT22;3399;52.530;13.304;2023-04-06T09:25:52;9.40;75.50
6724;DHT22;3399;52.530;13.304;2023-04-06T09:28:28;9.40;73.10
6724;DHT22;3399;52.530;13.304;2023-04-06T09:30:53;9.40;73.70
6724;DHT22;3399;52.530;13.304;2023-04-06T09:33:23;9.50;71.60
6724;DHT22;3399;52.530;13.304;2023-04-06T09:35:52;9.70;72.10
6724;DHT22;3399;52.530;13.304;2023-04-06T09:38:17;9.90;70.00
6724;DHT22;3399;52.530;13.304;2023-04-06T09:40:52;9.90;68.70
6724;DHT22;3399;52.530;13.304;2023-04-06T09:43:25;9.90;67.90
6724;DHT22;3399;52.530;13.304;2023-04-06T09:45:52;9.70;68.20
6724;DHT22;3399;52.530;13.304;2023-04-06T09:48:19;9.80;69.30
6724;DHT22;3399;52.530;13.304;2023-04-06T09:50:46;9.90;68.90
6724;DHT22;3399;52.530;13.304;2023-04-06T09:53:12;10.00;68.00
6724;DHT22;3399;52.530;13.304;2023-04-06T09:55:42;10.20;68.90
6724;DHT22;3399;52.530;13.304;2023-04-06T09:58:13;10.30;67.00
6724;DHT22;3399;52.530;13.304;2023-04-06T10:00:47;10.40;65.60
6724;DHT22;3399;52.530;13.304;2023-04-06T10:06:12;10.50;64.90
6724;DHT22;3399;52.530;13.304;2023-04-06T10:08:40;10.60;65.10
6724;DHT22;3399;52.530;13.304;2023-04-06T10:11:07;10.50;62.50
6724;DHT22;3399;52.530;13.304;2023-04-06T10:13:33;10.50;62.10
6724;DHT22;3399;52.530;13.304;2023-04-06T10:15:59;10.50;61.30
6724;DHT22;3399;52.530;13.304;2023-04-06T10:18:26;10.80;63.20
6724;DHT22;3399;52.530;13.304;2023-04-06T10:21:00;10.70;61.50
6724;DHT22;3399;52.530;13.304;2023-04-06T10:23:47;10.60;60.00
6724;DHT22;3399;52.530;13.304;2023-04-06T10:26:15;10.60;60.90
6724;DHT22;3399;52.530;13.304;2023-04-06T10:28:42;10.80;58.20
6724;DHT22;3399;52.530;13.304;2023-04-06T10:31:08;11.10;57.30
6724;DHT22;3399;52.530;13.304;2023-04-06T10:33:34;11.30;56.40
6724;DHT22;3399;52.530;13.304;2023-04-06T10:36:13;11.40;55.70
6724;DHT22;3399;52.530;13.304;2023-04-06T10:38:40;11.50;55.10
6724;DHT22;3399;52.530;13.304;2023-04-06T10:41:08;11.10;54.90
6724;DHT22;3399;52.530;13.304;2023-04-06T10:43:35;11.00;56.00
6724;DHT22;3399;52.530;13.304;2023-04-06T10:46:02;11.10;55.90
6724;DHT22;3399;52.530;13.304;2023-04-06T10:48:41;11.40;55.70
6724;DHT22;3399;52.530;13.304;2023-04-06T10:51:10;11.90;56.20
6724;DHT22;3399;52.530;13.304;2023-04-06T10:53:36;12.40;56.10
6724;DHT22;3399;52.530;13.304;2023-04-06T10:56:02;12.50;52.20
6724;DHT22;3399;52.530;13.304;2023-04-06T10:58:29;12.60;52.80
6724;DHT22;3399;52.530;13.304;2023-04-06T11:00:56;12.80;52.80
6724;DHT22;3399;52.530;13.304;2023-04-06T11:03:21;12.40;50.70
6724;DHT22;3399;52.530;13.304;2023-04-06T11:05:48;11.80;50.30
6724;DHT22;3399;52.530;13.304;2023-04-06T11:08:27;11.50;50.40
6724;DHT22;3399;52.530;13.304;2023-04-06T11:11:07;11.30;49.30
6724;DHT22;3399;52.530;13.304;2023-04-06T11:13:48;11.30;49.80
6724;DHT22;3399;52.530;13.304;2023-04-06T11:16:41;12.10;51.80
6724;DHT22;3399;52.530;13.304;2023-04-06T11:19:06;12.30;48.00
6724;DHT22;3399;52.530;13.304;2023-04-06T11:21:47;12.70;50.80
6724;DHT22;3399;52.530;13.304;2023-04-06T11:26:56;13.70;48.40
6724;DHT22;3399;52.530;13.304;2023-04-06T11:29:29;13.90;47.90
6724;DHT22;3399;52.530;13.304;2023-04-06T11:32:05;13.80;47.70
6724;DHT22;3399;52.530;13.304;2023-04-06T11:34:41;13.60;47.30
6724;DHT22;3399;52.530;13.304;2023-04-06T11:37:09;13.70;46.10
6724;DHT22;3399;52.530;13.304;2023-04-06T11:39:39;13.50;45.60
6724;DHT22;3399;52.530;13.304;2023-04-06T11:42:06;13.60;46.60
6724;DHT22;3399;52.530;13.304;2023-04-06T11:44:36;13.60;45.20
6724;DHT22;3399;52.530;13.304;2023-04-06T11:47:03;14.30;46.30
6724;DHT22;3399;52.530;13.304;2023-04-06T11:49:30;14.30;44.50
6724;DHT22;3399;52.530;13.304;2023-04-06T11:51:57;14.00;44.70
6724;DHT22;3399;52.530;13.304;2023-04-06T11:54:37;14.00;45.20
6724;DHT22;3399;52.530;13.304;2023-04-06T11:57:05;13.60;43.90
6724;DHT22;3399;52.530;13.304;2023-04-06T11:59:31;13.10;43.90
6724;DHT22;3399;52.530;13.304;2023-04-06T12:01:57;13.00;45.10
6724;DHT22;3399;52.530;13.304;2023-04-06T12:04:23;13.30;44.90
6724;DHT22;3399;52.530;13.304;2023-04-06T12:06:49;13.60;45.90
6724;DHT22;3399;52.530;13.304;2023-04-06T12:09:15;13.90;45.00
6724;DHT22;3399;52.530;13.304;2023-04-06T12:11:42;14.00;45.40
6724;DHT22;3399;52.530;13.304;2023-04-06T12:14:08;13.70;44.80
6724;DHT22;3399;52.530;13.304;2023-04-06T12:16:34;14.30;45.50
6724;DHT22;3399;52.530;13.304;2023-04-06T12:19:00;15.10;41.60
6724;DHT22;3399;52.530;13.304;2023-04-06T12:21:30;15.20;41.80
6724;DHT22;3399;52.530;13.304;2023-04-06T12:23:57;15.20;41.20
6724;DHT22;3399;52.530;13.304;2023-04-06T12:26:24;15.50;39.50
6724;DHT22;3399;52.530;13.304;2023-04-06T12:28:50;16.00;39.60
6724;DHT22;3399;52.530;13.304;2023-04-06T12:31:20;16.50;39.20
6724;DHT22;3399;52.530;13.304;2023-04-06T12:33:47;16.80;39.10
6724;DHT22;3399;52.530;13.304;2023-04-06T12:36:14;17.00;37.60
6724;DHT22;3399;52.530;13.304;2023-04-06T12:38:41;16.30;37.20
6724;DHT22;3399;52.530;13.304;2023-04-06T12:41:07;16.20;37.20
6724;DHT22;3399;52.530;13.304;2023-04-06T12:43:33;16.40;38.50
6724;DHT22;3399;52.530;13.304;2023-04-06T12:45:58;16.50;37.30
6724;DHT22;3399;52.530;13.304;2023-04-06T12:48:25;15.70;37.80
6724;DHT22;3399;52.530;13.304;2023-04-06T12:51:01;15.00;39.00
6724;DHT22;3399;52.530;13.304;2023-04-06T12:53:27;15.20;39.80
6724;DHT22;3399;52.530;13.304;2023-04-06T12:55:54;15.10;37.30
6724;DHT22;3399;52.530;13.304;2023-04-06T12:58:20;15.70;38.50
6724;DHT22;3399;52.530;13.304;2023-04-06T13:00:47;16.60;37.50
6724;DHT22;3399;52.530;13.304;2023-04-06T13:03:13;17.00;36.70
6724;DHT22;3399;52.530;13.304;2023-04-06T13:05:45;17.10;37.60
6724;DHT22;3399;52.530;13.304;2023-04-06T13:08:12;17.40;36.70
6724;DHT22;3399;52.530;13.304;2023-04-06T13:10:37;17.60;35.70
6724;DHT22;3399;52.530;13.304;2023-04-06T13:13:03;18.10;36.00
6724;DHT22;3399;52.530;13.304;2023-04-06T13:15:29;18.40;34.40
6724;DHT22;3399;52.530;13.304;2023-04-06T13:17:55;18.50;35.00
6724;DHT22;3399;52.530;13.304;2023-04-06T13:20:20;18.10;34.20
6724;DHT22;3399;52.530;13.304;2023-04-06T13:22:46;18.00;35.60
6724;DHT22;3399;52.530;13.304;2023-04-06T13:25:11;18.60;35.50
6724;DHT22;3399;52.530;13.304;2023-04-06T13:27:37;18.10;34.20
6724;DHT22;3399;52.530;13.304;2023-04-06T13:30:03;18.20;33.50
6724;DHT22;3399;52.530;13.304;2023-04-06T13:32:29;17.30;34.80
6724;DHT22;3399;52.530;13.304;2023-04-06T13:34:56;16.60;35.70
6724;DHT22;3399;52.530;13.304;2023-04-06T13:37:21;17.30;35.50
6724;DHT22;3399;52.530;13.304;2023-04-06T13:39:47;17.20;36.50
6724;DHT22;3399;52.530;13.304;2023-04-06T13:42:13;17.80;34.30
6724;DHT22;3399;52.530;13.304;2023-04-06T13:44:38;18.50;32.90
6724;DHT22;3399;52.530;13.304;2023-04-06T13:47:04;19.10;33.40
6724;DHT22;3399;52.530;13.304;2023-04-06T13:49:29;18.50;32.90
6724;DHT22;3399;52.530;13.304;2023-04-06T13:51:55;19.00;32.90
6724;DHT22;3399;52.530;13.304;2023-04-06T13:54:21;19.70;35.70
6724;DHT22;3399;52.530;13.304;2023-04-06T13:56:46;20.00;32.20
6724;DHT22;3399;52.530;13.304;2023-04-06T13:59:12;20.50;32.10
6724;DHT22;3399;52.530;13.304;2023-04-06T14:01:37;20.50;32.10
6724;DHT22;3399;52.530;13.304;2023-04-06T14:04:03;20.40;30.40
6724;DHT22;3399;52.530;13.304;2023-04-06T14:06:28;19.80;31.90
6724;DHT22;3399;52.530;13.304;2023-04-06T14:08:54;19.80;32.40
6724;DHT22;3399;52.530;13.304;2023-04-06T14:11:20;19.90;32.60
6724;DHT22;3399;52.530;13.304;2023-04-06T14:13:45;19.70;32.20
6724;DHT22;3399;52.530;13.304;2023-04-06T14:16:11;19.70;32.80
6724;DHT22;3399;52.530;13.304;2023-04-06T14:18:37;20.00;32.40
6724;DHT22;3399;52.530;13.304;2023-04-06T14:21:03;19.70;30.90
6724;DHT22;3399;52.530;13.304;2023-04-06T14:23:29;18.90;32.20
6724;DHT22;3399;52.530;13.304;2023-04-06T14:26:01;18.70;32.50
6724;DHT22;3399;52.530;13.304;2023-04-06T14:28:28;19.40;34.10
6724;DHT22;3399;52.530;13.304;2023-04-06T14:30:54;21.70;32.70
6724;DHT22;3399;52.530;13.304;2023-04-06T14:33:19;24.20;30.50
6724;DHT22;3399;52.530;13.304;2023-04-06T14:35:45;25.00;29.10
6724;DHT22;3399;52.530;13.304;2023-04-06T14:38:10;24.90;29.10
6724;DHT22;3399;52.530;13.304;2023-04-06T14:40:36;23.80;28.20
6724;DHT22;3399;52.530;13.304;2023-04-06T14:43:02;22.40;28.80
6724;DHT22;3399;52.530;13.304;2023-04-06T14:45:28;21.40;29.50
6724;DHT22;3399;52.530;13.304;2023-04-06T14:47:53;20.90;29.60
6724;DHT22;3399;52.530;13.304;2023-04-06T14:50:19;21.00;30.10
6724;DHT22;3399;52.530;13.304;2023-04-06T14:52:44;21.20;29.00
6724;DHT22;3399;52.530;13.304;2023-04-06T14:55:12;21.00;29.50
6724;DHT22;3399;52.530;13.304;2023-04-06T14:57:39;21.10;29.60
6724;DHT22;3399;52.530;13.304;2023-04-06T15:00:05;21.60;29.60
6724;DHT22;3399;52.530;13.304;2023-04-06T15:02:33;22.70;29.70
6724;DHT22;3399;52.530;13.304;2023-04-06T15:04:58;22.70;29.20
6724;DHT22;3399;52.530;13.304;2023-04-06T15:07:24;23.00;28.80
6724;DHT22;3399;52.530;13.304;2023-04-06T15:09:49;23.40;28.20
6724;DHT22;3399;52.530;13.304;2023-04-06T15:12:15;24.00;28.20
6724;DHT22;3399;52.530;13.304;2023-04-06T15:14:40;24.10;28.70
6724;DHT22;3399;52.530;13.304;2023-04-06T15:17:06;24.10;27.70
6724;DHT22;3399;52.530;13.304;2023-04-06T15:19:32;24.40;27.60
6724;DHT22;3399;52.530;13.304;2023-04-06T15:21:57;23.00;27.30
6724;DHT22;3399;52.530;13.304;2023-04-06T15:24:22;22.10;28.10
6724;DHT22;3399;52.530;13.304;2023-04-06T15:26:48;22.30;28.90
6724;DHT22;3399;52.530;13.304;2023-04-06T15:29:13;22.90;28.20
6724;DHT22;3399;52.530;13.304;2023-04-06T15:31:39;23.30;28.30
6724;DHT22;3399;52.530;13.304;2023-04-06T15:34:06;22.70;27.90
6724;DHT22;3399;52.530;13.304;2023-04-06T15:36:34;22.60;27.90
6724;DHT22;3399;52.530;13.304;2023-04-06T15:39:00;22.00;28.40
6724;DHT22;3399;52.530;13.304;2023-04-06T15:41:26;22.40;29.30
6724;DHT22;3399;52.530;13.304;2023-04-06T15:43:53;22.70;28.10
6724;DHT22;3399;52.530;13.304;2023-04-06T15:46:19;21.60;28.00
6724;DHT22;3399;52.530;13.304;2023-04-06T15:48:45;21.10;28.30
6724;DHT22;3399;52.530;13.304;2023-04-06T15:51:11;21.00;28.90
6724;DHT22;3399;52.530;13.304;2023-04-06T15:53:36;21.60;28.80
6724;DHT22;3399;52.530;13.304;2023-04-06T15:56:04;21.90;28.40
6724;DHT22;3399;52.530;13.304;2023-04-06T15:58:30;22.30;28.20
6724;DHT22;3399;52.530;13.304;2023-04-06T16:00:56;22.30;28.00
6724;DHT22;3399;52.530;13.304;2023-04-06T16:03:22;22.30;27.90